Nearby METAR Reports

 

KBUF - Buffalo/Cheektow, New York, USA
Distance from station: 0 0mi, 0km
Updated: 01/23/2022 9:33pm
Mostly cloudy
Mostly cloudy
 Wind from NNW
Wind: NNW 8 mph , 13 km/h
Temperature: 10°F , -12°C
Wind Chill: -2°F , -19°C
Dew Point: -0°F , -18°C
Humidity: 61%
Barometer: 29.89 inHg , 1012.2 hPa
Clouds: Mostly cloudy
Visibility: 10 miles , 16 km
Cloud details: Mostly cloudy 2900 ft
2022/01/24 02:33 KBUF 240233Z 34007KT 10SM BKN029 M12/M18 A2989 RMK AO2 T11221178 $
KIAG - Niagara Falls, New York, USA
Distance from station: NW 16mi, 26km
Updated: 01/23/2022 9:25pm
Overcast
Overcast
 Wind from N
Wind: N 5 mph , 7 km/h
Temperature: 14°F , -10°C
Wind Chill: 6°F , -14°C
Dew Point: 3°F , -16°C
Humidity: 62%
Barometer: 29.90 inHg , 1012.5 hPa
Clouds: Overcast
Visibility: 10 miles , 16 km
Cloud details: Overcast 2800 ft
2022/01/24 02:25 KIAG 240225Z 36004KT 10SM OVC028 M10/M16 A2990 RMK AO2 T11001161 $
 
CWPC - Port Colborne(Au, Ontario, Canada
Distance from station: W 27mi, 43km
Updated: 01/23/2022 9:00pm

 Wind from N
Wind: N 9 mph , 15 km/h
Temperature: 14°F , -10°C
Wind Chill: 2°F , -17°C
Dew Point: 9°F , -13°C
Humidity: 79%
2022/01/24 02:00 CWPC 240200Z AUTO 01008KT M10/M13 RMK AO1 SLP145 T10961134 51018
CYSN - St. Catharines A, Ontario, Canada
Distance from station: NW 29mi, 46km
Updated: 01/23/2022 9:00pm
Mostly cloudy
Mostly cloudy
 Wind from NNW
Wind: NNW 9 mph , 15 km/h
Temperature: 16°F , -9°C
Wind Chill: 5°F , -15°C
Dew Point: 5°F , -15°C
Humidity: 62%
Barometer: 29.92 inHg , 1013.2 hPa
Clouds: Mostly cloudy
Visibility: 10 miles , 16 km
Cloud details: Mostly cloudy 2700 ft
2022/01/24 02:00 CYSN 240200Z 34008KT 10SM BKN027 M09/M15 A2992 RMK SC6 LAST STFD OBS/NEXT 241200Z SLP140
 
CWWZ - Port Weller (mar, Ontario, Canada
Distance from station: NW 33mi, 53km
Updated: 01/23/2022 9:00pm

 Wind from NNW
Wind: NNW 15 mph , 24 km/h
Temperature: 16°F , -9°C
Wind Chill: 1°F , -17°C
Dew Point: 10°F , -12°C
Humidity: 79%
2022/01/24 02:00 CWWZ 240200Z AUTO 33013KT M09/M12 RMK AO1 SOG 18 1018 PK WND 33020/0134 SLP145 T10851122
CXVN - Vineland (au8), Ontario, Canada
Distance from station: WNW 38mi, 61km
Updated: 01/23/2022 9:00pm

 Wind from N
Wind: N 10 mph , 17 km/h
Temperature: 16°F , -9°C
Wind Chill: 4°F , -16°C
Dew Point: 5°F , -15°C
Humidity: 62%
2022/01/24 02:00 CXVN 240200Z AUTO 35009KT M09/M15 RMK AO1 SOG 14 1020 SLP145 T10931150
 
KDKK - Dunkirk, New York, USA
Distance from station: SW 41mi, 66km
Updated: 01/23/2022 8:53pm
Light snow, Mist, Overcast
Light snow, Mist, Overcast
 Wind from SE
Wind: SE 5 mph , 7 km/h
Temperature: 18°F , -8°C
Wind Chill: 11°F , -12°C
Dew Point: 14°F , -10°C
Humidity: 86%
Barometer: 29.89 inHg , 1012.2 hPa
Summary: Light snow, Mist
Clouds: Overcast
Visibility: 6 miles , 10 km
Cloud details: Overcast 2300 ft
2022/01/24 01:53 KDKK 240153Z AUTO 13004KT 6SM -SN BR OVC023 M08/M10 A2989 RMK AO2 SLP132 P0000 T10831100
KOLE - Olean, New York, USA
Distance from station: SSE 52mi, 83km
Updated: 01/23/2022 9:35pm
Light snow, Overcast
Light snow, Overcast
 Wind from NNW
Wind: NNW 3 mph , 6 km/h
Temperature: 10°F , -12°C
Dew Point: 5°F , -15°C
Humidity: 79%
Barometer: 29.75 inHg , 1007.5 hPa
Summary: Light Snow
Clouds: Overcast
Visibility: 4 miles , 6 km
Cloud details: Mostly cloudy 1300 ft
Overcast 3200 ft
2022/01/24 02:35 KOLE 240235Z AUTO 34003KT 4SM -SN BKN013 OVC032 M12/M15 A2975 RMK AO2
 
KROC - Rochester, New York, USA
Distance from station: ENE 55mi, 88km
Updated: 01/23/2022 8:54pm
Mostly cloudy
Mostly cloudy
 Wind from WNW
Wind: WNW 8 mph , 13 km/h
Temperature: 14°F , -10°C
Wind Chill: 3°F , -16°C
Dew Point: 1°F , -17°C
Humidity: 57%
Barometer: 29.88 inHg , 1011.9 hPa
Clouds: Mostly cloudy
Visibility: 10 miles , 16 km
Cloud details: Partly cloudy 6000 ft
Mostly cloudy 8000 ft
2022/01/24 01:54 KROC 240154Z 30007KT 10SM SCT060 BKN080 M10/M17 A2988 RMK AO2 SLP129 T11001167
KDSV - Dansville, New York, USA
Distance from station: ESE 57mi, 92km
Updated: 01/23/2022 8:54pm
Overcast
Overcast
 Wind from NNW
Wind: NNW 8 mph , 13 km/h
Temperature: 16°F , -9°C
Wind Chill: 5°F , -15°C
Dew Point: 10°F , -12°C
Humidity: 79%
Barometer: 29.86 inHg , 1011.2 hPa
Clouds: Overcast
Visibility: 10 miles , 16 km
Cloud details: Overcast 7000 ft
2022/01/24 01:54 KDSV 240154Z AUTO 33007KT 10SM OVC070 M09/M12 A2986 RMK AO2 SLP130 T10941122 $
 
CWWB - Burlington Piers, Ontario, Canada
Distance from station: WNW 59mi, 94km
Updated: 01/23/2022 9:00pm

 Wind from W
Wind: W 3 mph , 6 km/h
Temperature: 10°F , -12°C
Dew Point: -0°F , -18°C
Humidity: 61%
2022/01/24 02:00 CWWB 240200Z AUTO 26003KT M12/M18 RMK AO1 SLP152 T11171175 51021
CYTZ - Toronto Il Vor, Ontario, Canada
Distance from station: NW 59mi, 95km
Updated: 01/23/2022 9:00pm
Clear
Clear
 Wind from NW
Wind: NW 10 mph , 17 km/h
Temperature: 10°F , -12°C
Wind Chill: -4°F , -20°C
Dew Point: 1°F , -17°C
Humidity: 67%
Barometer: 29.94 inHg , 1013.9 hPa
Clouds: Clear
Visibility: 9 miles , 14 km
2022/01/24 02:00 CYTZ 240200Z AUTO 32009KT 9SM CLR M12/M17 A2994 RMK SLP147
 
CXTO - Toronto City, Ontario, Canada
Distance from station: NW 61mi, 98km
Updated: 01/23/2022 9:00pm

 
Temperature: 9°F , -13°C
Dew Point: 1°F , -17°C
Humidity: 72%
2022/01/24 02:00 CXTO 240200Z AUTO M13/M17 RMK AO1 SOG 20 1013 SLP141 T11251170
KJHW - Jamestown, New York, USA
Distance from station: SSW 62mi, 99km
Updated: 01/23/2022 8:56pm
Light snow, Overcast
Light snow, Overcast
 Wind from NNE
Wind: NNE 7 mph , 11 km/h
Temperature: 12°F , -11°C
Wind Chill: 1°F , -17°C
Dew Point: 9°F , -13°C
Humidity: 85%
Barometer: 29.79 inHg , 1008.8 hPa
Summary: Light Snow
Clouds: Overcast
Visibility: 9 miles , 14 km
Cloud details: Overcast 5000 ft
2022/01/24 01:56 KJHW 240156Z AUTO 02006KT 9SM -SN OVC050 M11/M13 A2979 RMK AO2 SLP124 P0000 T11061128 FZRANO
 
CYHM - Hamilton Airport, Ontario, Canada
Distance from station: WNW 63mi, 101km
Updated: 01/23/2022 9:00pm
Few Clouds
Few Clouds
 Wind from NNW
Wind: NNW 6 mph , 9 km/h
Temperature: 5°F , -15°C
Wind Chill: -6°F , -21°C
Dew Point: -0°F , -18°C
Humidity: 78%
Barometer: 29.90 inHg , 1012.5 hPa
Clouds: Few Clouds
Visibility: 15 miles , 24 km
Cloud details: Few Clouds 2500 ft
2022/01/24 02:00 CYHM 240200Z 33005KT 15SM FEW025 M15/M18 A2990 RMK SC1 SC TR SLP144
CXHM - Hamilton Rbg Cs, Ontario, Canada
Distance from station: WNW 64mi, 102km
Updated: 01/23/2022 9:00pm

 Wind from W
Wind: W 2 mph , 4 km/h
Temperature: 5°F , -15°C
Dew Point: -0°F , -18°C
Humidity: 78%
2022/01/24 02:00 CXHM 240200Z AUTO 27002KT M15/M18 RMK AO1 SLP154 T11501183 51021
 
CYYZ - Toronto/Pearson, Ontario, Canada
Distance from station: NW 67mi, 108km
Updated: 01/23/2022 9:00pm
Clear
Clear
 Wind from NW
Wind: NW 10 mph , 17 km/h
Temperature: 7°F , -14°C
Wind Chill: -7°F , -22°C
Dew Point: -2°F , -19°C
Humidity: 66%
Barometer: 29.92 inHg , 1013.2 hPa
Clouds: Clear
Visibility: 15 miles , 24 km
2022/01/24 02:00 CYYZ 240200Z 31009KT 15SM SKC M14/M19 A2992 RMK SLP145
CYOO - Oshawa, Ontario, Canada
Distance from station: N 68mi, 110km
Updated: 01/23/2022 9:00pm
Clear
Clear
 Wind from NNW
Wind: NNW 5 mph , 7 km/h
Temperature: 3°F , -16°C
Wind Chill: -7°F , -22°C
Dew Point: -8°F , -22°C
Humidity: 60%
Barometer: 29.90 inHg , 1012.5 hPa
Clouds: Clear
Visibility: 9 miles , 14 km
2022/01/24 02:00 CYOO 240200Z AUTO 33004KT 9SM CLR M16/M22 A2990 RMK SLP140
 
KELZ - Wellsville, New York, USA
Distance from station: SE 69mi, 111km
Updated: 01/23/2022 9:40pm
Light snow, Mist, Overcast
Light snow, Mist, Overcast
 
Temperature: 12°F , -11°C
Dew Point: 9°F , -13°C
Humidity: 85%
Barometer: 29.76 inHg , 1007.8 hPa
Summary: Light snow, Mist
Clouds: Overcast
Visibility: 3 miles , 5 km
Cloud details: Few Clouds 800 ft
Mostly cloudy 1100 ft
Overcast 5000 ft
2022/01/24 02:40 KELZ 240240Z AUTO 3SM -SN BR FEW008 BKN011 OVC050 M11/M13 A2976 RMK AO2 P0000 T11111133 $
CWNC - Cobourg (mars), Ontario, Canada
Distance from station: NNE 76mi, 122km
Updated: 01/23/2022 9:00pm

 Wind from N
Wind: N 8 mph , 13 km/h
Temperature: 5°F , -15°C
Wind Chill: -8°F , -22°C
Dew Point: -8°F , -22°C
Humidity: 55%
2022/01/24 02:00 CWNC 240200Z AUTO 35007KT M15/M22 RMK AO1 SOG 12 3014 SLP130 T11531221